Time;durP1;ratioP1;P1;durP2;ratioP2;P2;SDS_P1;SDS_P2;PMS_P1;PMS_P2;Temp;Humidity;BMP_temperature;BMP_pressure;BME280_temperature;BME280_humidity;BME280_pressure;Samples;Min_cycle;Max_cycle;Signal;HPM_P1;HPM_P2
2022/07/13 00:00:14;;;;;;;27.08;22.45;;;20.80;99.90;;;;;;5011505;28;20670;-73
2022/07/13 00:02:39;;;;;;;23.42;20.67;;;20.80;99.90;;;;;;5018444;28;20053;-73
2022/07/13 00:05:06;;;;;;;25.92;21.85;;;20.80;99.90;;;;;;5013346;28;20058;-74
2022/07/13 00:07:35;;;;;;;23.45;21.05;;;20.80;99.90;;;;;;5011731;28;20533;-73
2022/07/13 00:10:02;;;;;;;24.48;21.27;;;20.80;99.90;;;;;;5025951;28;20140;-73
2022/07/13 00:12:28;;;;;;;23.90;21.33;;;20.70;99.90;;;;;;5014203;28;20045;-73
2022/07/13 00:14:53;;;;;;;25.02;21.88;;;20.70;99.90;;;;;;5034997;28;20044;-73
2022/07/13 00:17:19;;;;;;;24.88;22.05;;;20.70;99.90;;;;;;5015107;28;20045;-73
2022/07/13 00:19:45;;;;;;;23.88;21.33;;;20.70;99.90;;;;;;5016718;28;20065;-73
2022/07/13 00:22:11;;;;;;;25.98;22.42;;;20.70;99.90;;;;;;5038958;28;20036;-73
2022/07/13 00:24:37;;;;;;;24.38;21.83;;;20.70;99.90;;;;;;5031392;28;20376;-73
2022/07/13 00:27:03;;;;;;;27.67;22.95;;;20.70;99.90;;;;;;5013992;28;20073;-73
2022/07/13 00:29:28;;;;;;;25.77;22.38;;;20.70;99.90;;;;;;5013972;28;20119;-73
2022/07/13 00:31:54;;;;;;;25.40;22.70;;;20.70;99.90;;;;;;5017965;28;20068;-73
2022/07/13 00:34:19;;;;;;;23.67;21.15;;;20.70;99.90;;;;;;5033040;28;20041;-72
2022/07/13 00:36:45;;;;;;;25.88;22.48;;;20.70;99.90;;;;;;5037448;28;20041;-73
2022/07/13 00:39:11;;;;;;;30.02;22.05;;;20.60;99.90;;;;;;5033093;28;20045;-74
2022/07/13 00:41:46;;;;;;;25.38;22.63;;;20.60;99.90;;;;;;5039494;28;20095;-73
2022/07/13 00:44:13;;;;;;;25.98;23.00;;;20.60;99.90;;;;;;5013521;28;20041;-73
2022/07/13 00:46:42;;;;;;;24.77;21.58;;;20.60;99.90;;;;;;5015000;28;20048;-74
2022/07/13 00:49:10;;;;;;;24.65;22.02;;;20.60;99.90;;;;;;5018105;28;20064;-73
2022/07/13 00:51:37;;;;;;;26.20;23.27;;;20.60;99.90;;;;;;5039498;28;20075;-73
2022/07/13 00:54:06;;;;;;;24.58;21.98;;;20.60;99.90;;;;;;5030917;28;20037;-73
2022/07/13 00:56:32;;;;;;;24.38;21.80;;;20.60;99.90;;;;;;5031262;28;20501;-73
2022/07/13 00:58:59;;;;;;;24.85;22.25;;;20.60;99.90;;;;;;5027766;28;21867;-73
2022/07/13 01:01:26;;;;;;;23.02;20.33;;;20.70;99.90;;;;;;5017510;28;20156;-73
2022/07/13 01:03:52;;;;;;;23.50;20.73;;;20.60;99.90;;;;;;5032273;28;20037;-74
2022/07/13 01:06:18;;;;;;;29.77;21.08;;;20.60;99.90;;;;;;5017699;28;20118;-72
2022/07/13 01:08:43;;;;;;;25.30;20.20;;;20.60;99.90;;;;;;5018529;28;20041;-74
2022/07/13 01:11:09;;;;;;;23.05;19.55;;;20.60;99.90;;;;;;5017783;28;20056;-73
2022/07/13 01:13:36;;;;;;;23.10;20.58;;;20.60;99.90;;;;;;5014968;28;20412;-73
2022/07/13 01:16:03;;;;;;;22.02;19.75;;;20.60;99.90;;;;;;5016429;28;20076;-74
2022/07/13 01:18:30;;;;;;;21.08;18.65;;;20.60;99.90;;;;;;5015272;28;20050;-73
2022/07/13 01:20:57;;;;;;;21.40;18.70;;;20.60;99.90;;;;;;5013939;28;22817;-73
2022/07/13 01:23:23;;;;;;;22.70;19.98;;;20.60;99.90;;;;;;5016110;28;20054;-73
2022/07/13 01:25:49;;;;;;;20.52;17.67;;;20.60;99.90;;;;;;5011790;28;20053;-73
2022/07/13 01:28:15;;;;;;;21.55;17.20;;;20.60;99.90;;;;;;5015360;28;20045;-73
2022/07/13 01:30:42;;;;;;;19.02;17.05;;;20.60;99.90;;;;;;5019505;28;20052;-72
2022/07/13 01:33:08;;;;;;;21.33;17.35;;;20.50;99.90;;;;;;5017606;28;20488;-72
2022/07/13 01:35:34;;;;;;;19.95;17.85;;;20.50;99.90;;;;;;5013776;28;20052;-72
2022/07/13 01:37:59;;;;;;;21.23;16.13;;;20.60;99.90;;;;;;5017511;28;20128;-72
2022/07/13 01:40:25;;;;;;;19.02;17.05;;;20.60;99.90;;;;;;5018539;28;20120;-72
2022/07/13 01:42:52;;;;;;;17.48;15.43;;;20.60;99.90;;;;;;5017968;28;20607;-74
2022/07/13 01:45:20;;;;;;;19.70;15.65;;;20.60;99.90;;;;;;5014216;28;20034;-72
2022/07/13 01:47:49;;;;;;;17.38;14.57;;;20.60;99.90;;;;;;5015687;28;20501;-73
2022/07/13 01:50:18;;;;;;;16.10;13.98;;;20.60;99.90;;;;;;5010045;28;20065;-72
2022/07/13 01:52:44;;;;;;;14.80;13.27;;;20.60;99.90;;;;;;5013788;28;20049;-72
2022/07/13 01:55:11;;;;;;;15.98;13.48;;;20.60;99.90;;;;;;5016686;28;20092;-72
2022/07/13 01:57:38;;;;;;;14.57;12.45;;;20.60;99.90;;;;;;5018128;28;20044;-72
2022/07/13 02:00:04;;;;;;;13.32;11.68;;;20.60;99.90;;;;;;5010593;28;20058;-72
2022/07/13 02:02:29;;;;;;;13.40;12.00;;;20.60;99.90;;;;;;5011709;28;20050;-73
2022/07/13 02:04:55;;;;;;;12.27;10.98;;;20.60;99.90;;;;;;5012826;28;20054;-72
2022/07/13 02:07:21;;;;;;;14.35;10.82;;;20.70;99.90;;;;;;5012784;28;20041;-73
2022/07/13 02:09:48;;;;;;;14.10;10.77;;;20.60;99.90;;;;;;5018448;28;20092;-73
2022/07/13 02:12:14;;;;;;;12.55;10.23;;;20.70;99.90;;;;;;5037805;28;20049;-73
2022/07/13 02:14:40;;;;;;;13.27;10.95;;;20.70;99.90;;;;;;5015343;28;20041;-73
2022/07/13 02:17:06;;;;;;;12.30;10.23;;;20.70;99.90;;;;;;5033041;28;20080;-73
2022/07/13 02:19:31;;;;;;;13.98;10.15;;;20.70;99.90;;;;;;5015888;28;20045;-73
2022/07/13 02:21:57;;;;;;;14.50;9.45;;;20.70;99.90;;;;;;5016762;28;20064;-73
2022/07/13 02:24:22;;;;;;;11.45;9.93;;;20.70;99.90;;;;;;5024075;28;20045;-74
2022/07/13 02:26:49;;;;;;;10.48;9.45;;;20.70;99.90;;;;;;5017507;28;20069;-73
2022/07/13 02:29:14;;;;;;;10.57;9.38;;;20.70;99.90;;;;;;5019082;28;20098;-71
2022/07/13 02:31:40;;;;;;;12.77;9.57;;;20.70;99.90;;;;;;4998314;28;20065;-72
2022/07/13 02:34:05;;;;;;;12.32;9.60;;;20.70;99.90;;;;;;4993466;28;20639;-73
2022/07/13 02:36:31;;;;;;;12.40;9.30;;;20.70;99.90;;;;;;5012047;28;20038;-73
2022/07/13 02:38:57;;;;;;;13.07;9.55;;;20.60;99.90;;;;;;5012969;28;20041;-73
2022/07/13 02:41:22;;;;;;;13.48;9.52;;;20.60;99.90;;;;;;5014113;28;20044;-73
2022/07/13 02:43:48;;;;;;;12.55;8.43;;;20.60;99.90;;;;;;5014147;28;20066;-73
2022/07/13 02:46:14;;;;;;;10.02;8.13;;;20.60;99.90;;;;;;4996467;28;20440;-73
2022/07/13 02:48:39;;;;;;;11.88;9.27;;;20.60;99.90;;;;;;5016936;28;20077;-73
2022/07/13 02:51:05;;;;;;;11.48;9.05;;;20.60;99.90;;;;;;4998821;28;20045;-73
2022/07/13 02:53:31;;;;;;;11.50;9.27;;;20.60;99.90;;;;;;5014085;28;20053;-73
2022/07/13 02:55:58;;;;;;;14.82;9.05;;;20.60;99.90;;;;;;4995475;28;20038;-73
2022/07/13 02:58:24;;;;;;;13.93;9.88;;;20.60;99.90;;;;;;5014000;28;20065;-73
2022/07/13 03:00:49;;;;;;;11.68;10.10;;;20.60;99.90;;;;;;5001434;28;20050;-73
2022/07/13 03:03:15;;;;;;;12.40;9.63;;;20.60;99.90;;;;;;5022458;28;20401;-73
2022/07/13 03:05:40;;;;;;;14.48;10.40;;;20.60;99.90;;;;;;4995371;28;20050;-73
2022/07/13 03:08:06;;;;;;;11.50;9.88;;;20.60;99.90;;;;;;4993156;28;20737;-73
2022/07/13 03:10:32;;;;;;;11.38;9.68;;;20.60;99.90;;;;;;5016379;28;20050;-73
2022/07/13 03:12:58;;;;;;;11.55;9.75;;;20.50;99.90;;;;;;4996927;28;20470;-73
2022/07/13 03:15:24;;;;;;;12.02;9.18;;;20.60;99.90;;;;;;5011129;28;20092;-73
2022/07/13 03:17:50;;;;;;;12.15;9.57;;;20.60;99.90;;;;;;4996846;28;20405;-73
2022/07/13 03:20:16;;;;;;;11.20;9.65;;;20.60;99.90;;;;;;5010963;28;20125;-73
2022/07/13 03:22:41;;;;;;;10.25;9.07;;;20.50;99.90;;;;;;4993508;28;20062;-73
2022/07/13 03:25:07;;;;;;;10.98;9.75;;;20.50;99.90;;;;;;5017156;28;20048;-73
2022/07/13 03:27:33;;;;;;;12.07;9.07;;;20.60;99.90;;;;;;5012851;28;20088;-73
2022/07/13 03:29:59;;;;;;;11.13;8.85;;;20.60;99.90;;;;;;5018092;28;20080;-73
2022/07/13 03:32:24;;;;;;;11.95;9.15;;;20.60;99.90;;;;;;4994256;28;20038;-73
2022/07/13 03:34:50;;;;;;;13.15;8.95;;;20.60;99.90;;;;;;5001258;28;20045;-74
2022/07/13 03:37:16;;;;;;;12.38;9.32;;;20.60;99.90;;;;;;5018230;28;20042;-74
2022/07/13 03:39:41;;;;;;;11.30;8.93;;;20.60;99.90;;;;;;4993137;28;20115;-74
2022/07/13 03:42:07;;;;;;;13.50;10.25;;;20.60;99.90;;;;;;4999476;28;20080;-73
2022/07/13 03:44:33;;;;;;;12.90;9.68;;;20.60;99.90;;;;;;4999266;28;20045;-73
2022/07/13 03:46:58;;;;;;;12.32;10.18;;;20.60;99.90;;;;;;4999810;28;20132;-73
2022/07/13 03:49:24;;;;;;;11.32;9.93;;;20.60;99.90;;;;;;5015227;28;20122;-73
2022/07/13 03:51:50;;;;;;;11.13;9.70;;;20.60;99.90;;;;;;4993958;28;20041;-72
2022/07/13 03:54:16;;;;;;;10.52;9.40;;;20.60;99.90;;;;;;5021273;28;20041;-73
2022/07/13 03:56:42;;;;;;;15.40;9.98;;;20.60;99.90;;;;;;5014234;28;20041;-73
2022/07/13 03:59:08;;;;;;;12.38;9.50;;;20.60;99.90;;;;;;5003937;28;20042;-73
2022/07/13 04:01:34;;;;;;;11.75;10.25;;;20.60;99.90;;;;;;5020779;28;20044;-73
2022/07/13 04:03:59;;;;;;;12.95;9.70;;;20.60;99.90;;;;;;4997611;28;20064;-73
2022/07/13 04:06:25;;;;;;;16.48;9.75;;;20.60;99.90;;;;;;5002011;28;20061;-73
2022/07/13 04:08:51;;;;;;;14.70;10.77;;;20.60;99.90;;;;;;5018663;28;20038;-73
2022/07/13 04:11:17;;;;;;;12.95;11.57;;;20.60;99.90;;;;;;4994728;28;20056;-73
2022/07/13 04:13:43;;;;;;;14.05;10.63;;;20.60;99.90;;;;;;4996495;28;20111;-74
2022/07/13 04:16:09;;;;;;;12.55;11.25;;;20.60;99.90;;;;;;5009996;28;20129;-73
2022/07/13 04:18:35;;;;;;;12.98;11.57;;;20.60;99.90;;;;;;4997173;28;20531;-72
2022/07/13 04:21:01;;;;;;;14.57;12.32;;;20.60;99.90;;;;;;5019160;28;20556;-75
2022/07/13 04:23:29;;;;;;;12.00;10.73;;;20.60;99.90;;;;;;5018544;28;20037;-72
2022/07/13 04:25:55;;;;;;;13.68;11.70;;;20.60;99.90;;;;;;5015588;28;20049;-73
2022/07/13 04:28:21;;;;;;;16.60;12.48;;;20.60;99.90;;;;;;4995379;28;20108;-73
2022/07/13 04:30:47;;;;;;;13.63;11.30;;;20.50;99.90;;;;;;5015084;28;20071;-73
2022/07/13 04:33:13;;;;;;;14.43;12.65;;;20.50;99.90;;;;;;5005811;28;20485;-73
2022/07/13 04:35:39;;;;;;;15.73;13.50;;;20.50;99.90;;;;;;5004673;28;20052;-73
2022/07/13 04:38:05;;;;;;;13.68;12.25;;;20.50;99.90;;;;;;5002333;28;20050;-73
2022/07/13 04:40:30;;;;;;;14.73;11.63;;;20.50;99.90;;;;;;5016655;28;20049;-73
2022/07/13 04:42:56;;;;;;;14.27;12.18;;;20.40;99.90;;;;;;4996905;28;20132;-72
2022/07/13 04:45:22;;;;;;;15.48;12.98;;;20.40;99.90;;;;;;5010614;28;20046;-73
2022/07/13 04:47:48;;;;;;;20.23;12.80;;;20.40;99.90;;;;;;5010826;28;20041;-73
2022/07/13 04:50:14;;;;;;;16.02;12.30;;;20.40;99.90;;;;;;5010136;28;20050;-74
2022/07/13 04:52:40;;;;;;;15.32;11.63;;;20.40;99.90;;;;;;4999925;28;20050;-73
2022/07/13 04:55:07;;;;;;;13.38;11.98;;;20.40;99.90;;;;;;4994960;28;20045;-73
2022/07/13 04:57:33;;;;;;;19.42;13.48;;;20.40;99.90;;;;;;4993170;28;20130;-73
2022/07/13 04:59:59;;;;;;;14.38;11.40;;;20.40;99.90;;;;;;4999288;28;20049;-73
2022/07/13 05:02:24;;;;;;;14.70;10.98;;;20.40;99.90;;;;;;5011606;28;20038;-73
2022/07/13 05:04:50;;;;;;;13.88;12.07;;;20.40;99.90;;;;;;5008621;28;20490;-73
2022/07/13 05:07:16;;;;;;;16.35;11.18;;;20.40;99.90;;;;;;4991620;28;20748;-73
2022/07/13 05:09:43;;;;;;;15.00;12.45;;;20.40;99.90;;;;;;5016730;28;20045;-73
2022/07/13 05:12:09;;;;;;;14.15;11.52;;;20.40;99.90;;;;;;5011700;28;20042;-74
2022/07/13 05:14:35;;;;;;;11.30;9.85;;;20.40;99.90;;;;;;4989090;28;20061;-74
2022/07/13 05:17:01;;;;;;;12.70;10.50;;;20.40;99.90;;;;;;5009317;28;20052;-69
2022/07/13 05:19:26;;;;;;;20.08;10.57;;;20.40;99.90;;;;;;5030627;28;21974;-70
2022/07/13 05:21:52;;;;;;;12.95;10.52;;;20.40;99.90;;;;;;5026250;28;20523;-71
2022/07/13 05:24:18;;;;;;;13.13;9.95;;;20.40;99.90;;;;;;5030645;28;20509;-69
2022/07/13 05:26:43;;;;;;;12.75;9.65;;;20.50;99.90;;;;;;5032326;28;20117;-70
2022/07/13 05:29:09;;;;;;;12.23;10.57;;;20.50;99.90;;;;;;5009044;28;20080;-71
2022/07/13 05:31:35;;;;;;;12.25;9.80;;;20.60;99.90;;;;;;5026778;28;20069;-73
2022/07/13 05:34:01;;;;;;;11.88;10.13;;;20.60;99.90;;;;;;5007249;28;20056;-73
2022/07/13 05:36:27;;;;;;;11.35;9.90;;;20.60;99.90;;;;;;5025655;28;20396;-74
2022/07/13 05:38:52;;;;;;;12.70;9.80;;;20.60;99.90;;;;;;5034384;28;20057;-75
2022/07/13 05:41:18;;;;;;;12.68;10.00;;;20.60;99.90;;;;;;5028264;28;20528;-73
2022/07/13 05:43:44;;;;;;;14.90;9.30;;;20.70;99.90;;;;;;5029090;28;20092;-73
2022/07/13 05:46:10;;;;;;;11.63;9.45;;;20.70;99.90;;;;;;5029808;28;20055;-73
2022/07/13 05:48:36;;;;;;;12.70;8.52;;;20.80;99.90;;;;;;5034409;28;20112;-72
2022/07/13 05:51:02;;;;;;;12.27;8.07;;;20.90;99.90;;;;;;5012980;28;20033;-73
2022/07/13 05:53:27;;;;;;;12.65;9.07;;;21.00;99.90;;;;;;5030097;28;20080;-74
2022/07/13 05:55:53;;;;;;;13.18;8.57;;;21.10;99.90;;;;;;5039192;28;20095;-73
2022/07/13 05:58:20;;;;;;;13.52;8.48;;;21.10;99.90;;;;;;5037246;28;20049;-73
2022/07/13 06:00:46;;;;;;;13.50;8.30;;;21.20;99.90;;;;;;5034951;28;20098;-73
2022/07/13 06:03:12;;;;;;;10.05;7.80;;;21.30;99.90;;;;;;5014211;28;20049;-72
2022/07/13 06:05:37;;;;;;;11.52;8.50;;;21.50;99.90;;;;;;5031354;28;20041;-74
2022/07/13 06:08:03;;;;;;;13.05;8.13;;;21.60;99.90;;;;;;5015392;28;20052;-73
2022/07/13 06:10:30;;;;;;;13.38;8.85;;;21.80;99.90;;;;;;5037600;28;20047;-73
2022/07/13 06:12:55;;;;;;;11.57;8.10;;;21.90;99.90;;;;;;5025926;28;20416;-73
2022/07/13 06:15:21;;;;;;;12.68;8.23;;;22.00;99.90;;;;;;5043167;28;20044;-74
2022/07/13 06:17:46;;;;;;;16.50;8.77;;;22.00;99.90;;;;;;5020922;28;20053;-73
2022/07/13 06:20:12;;;;;;;13.55;6.85;;;22.20;99.90;;;;;;5041052;28;20049;-74
2022/07/13 06:22:38;;;;;;;11.13;6.90;;;22.30;99.90;;;;;;5017083;28;20044;-74
2022/07/13 06:25:04;;;;;;;15.48;8.20;;;22.40;99.90;;;;;;5032139;28;20567;-74
2022/07/13 06:27:30;;;;;;;13.75;7.85;;;22.50;99.90;;;;;;5021261;28;20096;-74
2022/07/13 06:29:56;;;;;;;12.23;7.45;;;22.70;99.90;;;;;;5024768;28;20103;-73
2022/07/13 06:32:21;;;;;;;12.05;7.93;;;22.80;99.90;;;;;;5022458;28;20054;-74
2022/07/13 06:34:47;;;;;;;13.40;7.88;;;22.80;99.90;;;;;;5008513;28;20042;-74
2022/07/13 06:37:12;;;;;;;12.60;8.70;;;22.90;99.90;;;;;;5021609;28;20065;-72
2022/07/13 06:39:38;;;;;;;12.43;8.52;;;23.10;99.90;;;;;;5022578;28;20137;-72
2022/07/13 06:42:04;;;;;;;12.63;8.43;;;23.10;99.90;;;;;;5013906;28;20117;-72
2022/07/13 06:44:29;;;;;;;13.07;7.90;;;23.20;99.90;;;;;;5014899;28;20050;-73
2022/07/13 06:46:59;;;;;;;10.88;8.45;;;23.20;99.90;;;;;;5018261;28;20540;-74
2022/07/13 06:49:26;;;;;;;11.00;7.60;;;23.30;99.90;;;;;;5014823;28;20470;-73
2022/07/13 06:51:57;;;;;;;12.07;8.25;;;23.30;99.90;;;;;;5012697;28;20116;-74
2022/07/13 06:54:23;;;;;;;11.98;8.68;;;23.40;99.90;;;;;;5005991;28;20058;-73
2022/07/13 06:56:49;;;;;;;11.73;8.18;;;23.50;99.90;;;;;;5011836;28;20045;-73
2022/07/13 06:59:14;;;;;;;20.95;9.80;;;23.60;99.90;;;;;;5016342;28;20046;-74
2022/07/13 07:01:40;;;;;;;13.32;9.38;;;23.70;99.90;;;;;;5016255;28;20049;-73
2022/07/13 07:04:05;;;;;;;14.25;9.40;;;23.80;99.90;;;;;;5021265;28;20117;-74
2022/07/13 07:06:31;;;;;;;13.05;8.80;;;23.90;99.90;;;;;;5019356;28;20045;-74
2022/07/13 07:08:58;;;;;;;12.50;9.27;;;24.00;99.90;;;;;;5012079;28;20387;-74
2022/07/13 07:11:24;;;;;;;13.77;9.73;;;24.10;99.90;;;;;;5012132;28;20077;-73
2022/07/13 07:13:50;;;;;;;13.20;8.05;;;24.20;99.90;;;;;;5019214;28;20042;-74
2022/07/13 07:16:17;;;;;;;12.75;8.13;;;24.30;99.90;;;;;;5018723;28;20164;-73
2022/07/13 07:18:42;;;;;;;9.35;7.25;;;24.40;99.90;;;;;;5017647;28;20132;-73
2022/07/13 07:21:08;;;;;;;12.38;8.05;;;24.50;99.90;;;;;;5021657;28;20065;-74
2022/07/13 07:23:33;;;;;;;13.15;7.88;;;24.50;99.90;;;;;;5023832;28;20045;-74
2022/07/13 07:25:59;;;;;;;12.80;7.97;;;24.50;99.90;;;;;;5015759;28;20038;-74
2022/07/13 07:28:25;;;;;;;8.77;5.78;;;24.70;99.90;;;;;;5020960;28;20404;-74
2022/07/13 07:30:51;;;;;;;9.63;5.50;;;24.80;99.90;;;;;;5015222;28;20181;-73
2022/07/13 07:33:17;;;;;;;7.80;5.43;;;24.90;99.90;;;;;;5011432;28;20037;-74
2022/07/13 07:35:43;;;;;;;10.40;6.53;;;25.00;99.90;;;;;;5012504;28;22276;-74
2022/07/13 07:38:08;;;;;;;8.77;6.28;;;25.10;99.90;;;;;;5015035;28;20086;-73
2022/07/13 07:40:34;;;;;;;8.32;5.68;;;25.20;99.90;;;;;;5008421;28;20046;-73
2022/07/13 07:43:00;;;;;;;9.80;5.72;;;25.40;99.90;;;;;;5023416;28;20046;-74
2022/07/13 07:45:25;;;;;;;10.57;5.70;;;25.40;99.90;;;;;;5014347;28;20069;-72
2022/07/13 07:47:51;;;;;;;8.75;5.50;;;25.50;99.90;;;;;;5034778;28;20618;-73
2022/07/13 07:50:17;;;;;;;11.15;5.00;;;25.60;99.90;;;;;;5013896;28;20444;-73
2022/07/13 07:52:43;;;;;;;9.18;4.65;;;25.70;99.90;;;;;;5015983;28;20497;-73
2022/07/13 07:55:09;;;;;;;7.97;4.95;;;25.80;99.90;;;;;;5000657;28;20079;-73
2022/07/13 07:57:45;;;;;;;9.80;4.90;;;25.90;99.90;;;;;;5009355;28;20045;-74
2022/07/13 08:00:12;;;;;;;7.72;4.15;;;25.90;99.90;;;;;;5016620;28;20053;-75
2022/07/13 08:02:38;;;;;;;6.22;3.67;;;26.00;99.90;;;;;;5014889;28;20397;-74
2022/07/13 08:05:05;;;;;;;7.20;4.15;;;26.10;99.90;;;;;;5017116;28;20642;-74
2022/07/13 08:07:31;;;;;;;8.60;4.28;;;26.20;99.90;;;;;;5012107;28;20038;-74
2022/07/13 08:09:56;;;;;;;9.68;4.80;;;26.30;99.90;;;;;;5016033;28;20037;-75
2022/07/13 08:12:22;;;;;;;6.03;4.10;;;26.40;99.90;;;;;;5016721;28;20505;-74
2022/07/13 08:14:47;;;;;;;9.95;4.43;;;26.50;99.90;;;;;;5020536;28;20501;-74
2022/07/13 08:17:13;;;;;;;10.10;4.50;;;26.60;99.90;;;;;;5020814;28;20064;-74
2022/07/13 08:19:38;;;;;;;6.35;3.78;;;26.60;99.90;;;;;;5022757;28;20041;-73
2022/07/13 08:22:04;;;;;;;8.43;3.60;;;26.70;99.90;;;;;;5010081;28;20037;-75
2022/07/13 08:24:30;;;;;;;7.30;3.95;;;26.80;99.90;;;;;;5022451;28;20523;-74
2022/07/13 08:26:55;;;;;;;5.47;3.67;;;26.80;99.90;;;;;;5012373;28;20053;-75
2022/07/13 08:29:21;;;;;;;6.03;3.65;;;26.90;99.90;;;;;;5017974;28;20092;-75
2022/07/13 08:31:47;;;;;;;10.13;4.50;;;27.00;99.90;;;;;;5016329;28;20041;-75
2022/07/13 08:39:42;;;;;;;6.40;3.30;;;27.30;99.90;;;;;;5013588;28;20057;-74
2022/07/13 08:42:09;;;;;;;6.93;3.92;;;27.40;99.90;;;;;;5018680;28;20038;-74
2022/07/13 08:44:34;;;;;;;12.90;5.20;;;27.40;99.90;;;;;;5016679;28;20063;-74
2022/07/13 08:47:00;;;;;;;7.45;4.47;;;27.50;99.90;;;;;;5018114;28;20120;-73
2022/07/13 08:49:27;;;;;;;6.45;4.75;;;27.60;99.90;;;;;;5017053;28;20590;-74
2022/07/13 08:51:54;;;;;;;8.15;3.60;;;27.60;99.90;;;;;;5011146;28;20105;-72
2022/07/13 08:54:20;;;;;;;8.73;4.03;;;27.70;99.90;;;;;;5012113;28;20201;-74
2022/07/13 08:56:46;;;;;;;7.00;3.40;;;27.80;99.90;;;;;;5017221;28;20155;-74
2022/07/13 08:59:12;;;;;;;5.30;2.97;;;27.90;99.90;;;;;;5022098;28;20050;-72
2022/07/13 09:01:38;;;;;;;5.30;3.20;;;27.90;99.90;;;;;;5010280;28;20508;-73
2022/07/13 09:04:09;;;;;;;7.03;3.47;;;28.00;99.90;;;;;;5006226;28;20133;-73
2022/07/13 09:06:47;;;;;;;8.00;3.60;;;28.00;99.60;;;;;;5009994;28;20125;-73
2022/07/13 09:09:33;;;;;;;6.25;3.10;;;28.00;99.90;;;;;;5017299;28;20103;-74
2022/07/13 09:12:19;;;;;;;7.53;3.83;;;28.00;98.60;;;;;;5014853;28;20042;-74
2022/07/13 09:14:54;;;;;;;7.90;3.53;;;28.00;98.70;;;;;;5013097;28;20049;-74
2022/07/13 09:17:27;;;;;;;6.07;3.47;;;28.00;99.00;;;;;;5013348;28;20042;-72
2022/07/13 09:19:52;;;;;;;8.73;4.35;;;28.00;99.70;;;;;;5009499;28;20060;-71
2022/07/13 09:22:18;;;;;;;7.45;3.97;;;27.90;98.90;;;;;;5011669;28;20045;-70
2022/07/13 09:24:50;;;;;;;6.03;3.40;;;27.80;99.60;;;;;;5006525;28;20065;-73
2022/07/13 09:27:17;;;;;;;5.10;3.53;;;27.80;99.20;;;;;;5014572;28;20046;-73
2022/07/13 09:29:42;;;;;;;5.32;3.80;;;27.90;99.10;;;;;;5023990;28;20048;-73
2022/07/13 09:32:11;;;;;;;7.82;3.80;;;27.90;99.50;;;;;;5019668;28;20054;-72
2022/07/13 09:35:05;;;;;;;8.75;4.50;;;27.80;99.10;;;;;;5026882;28;20049;-72
2022/07/13 09:37:31;;;;;;;6.90;3.55;;;27.80;98.50;;;;;;4995561;28;20048;-72
2022/07/13 09:39:59;;;;;;;6.32;3.40;;;27.80;98.70;;;;;;5014536;28;20042;-72
2022/07/13 09:42:30;;;;;;;6.63;3.60;;;27.80;99.00;;;;;;5016168;28;20041;-72
2022/07/13 09:47:53;;;;;;;7.22;3.67;;;27.80;98.60;;;;;;5011601;28;20042;-73
2022/07/13 09:50:24;;;;;;;8.02;3.88;;;27.90;98.40;;;;;;5015749;28;20554;-73
2022/07/13 09:52:52;;;;;;;7.88;3.20;;;28.00;98.90;;;;;;5017875;28;20443;-72
2022/07/13 09:55:20;;;;;;;5.47;3.38;;;28.00;98.80;;;;;;5009587;28;20173;-75
2022/07/13 09:58:02;;;;;;;7.35;3.90;;;28.00;96.60;;;;;;5019085;28;20124;-74
2022/07/13 10:00:28;;;;;;;4.97;3.15;;;28.00;97.60;;;;;;5021753;28;20050;-73
2022/07/13 10:02:55;;;;;;;4.53;2.55;;;28.00;97.70;;;;;;5015535;28;20116;-72
2022/07/13 10:05:20;;;;;;;5.28;2.80;;;28.10;97.20;;;;;;5005659;28;20137;-73
2022/07/13 10:07:47;;;;;;;4.22;1.90;;;28.10;96.70;;;;;;5015012;28;20140;-74
2022/07/13 10:10:15;;;;;;;8.57;2.20;;;28.00;95.40;;;;;;5018131;28;20073;-73
2022/07/13 10:12:43;;;;;;;5.03;2.17;;;28.00;95.80;;;;;;5011331;28;20412;-73
2022/07/13 10:15:10;;;;;;;4.05;2.22;;;28.10;96.20;;;;;;5022632;28;20056;-73
2022/07/13 10:17:37;;;;;;;4.82;2.10;;;28.30;96.50;;;;;;5014910;28;20041;-73
2022/07/13 10:20:15;;;;;;;6.03;2.17;;;28.30;96.60;;;;;;5014771;28;20052;-73
2022/07/13 10:22:46;;;;;;;2.85;1.88;;;28.40;94.90;;;;;;5014946;28;20081;-73
2022/07/13 10:25:12;;;;;;;3.72;2.22;;;28.40;95.30;;;;;;5028625;28;20121;-69
2022/07/13 10:27:41;;;;;;;3.88;2.35;;;28.50;95.70;;;;;;5018911;28;20043;-70
2022/07/13 10:30:08;;;;;;;5.28;2.58;;;28.40;95.90;;;;;;5027264;28;20051;-69
2022/07/13 10:32:39;;;;;;;5.20;2.40;;;28.50;95.80;;;;;;5021772;28;20049;-70
2022/07/13 10:35:17;;;;;;;4.63;2.20;;;28.50;96.00;;;;;;5011159;28;20042;-70
2022/07/13 10:37:58;;;;;;;4.70;2.22;;;28.50;95.80;;;;;;5021731;28;20034;-68
2022/07/13 10:40:26;;;;;;;3.78;2.08;;;28.50;95.20;;;;;;5013257;28;20049;-68
2022/07/13 10:42:57;;;;;;;4.85;2.00;;;28.60;95.40;;;;;;5019858;28;20038;-72
2022/07/13 10:45:55;;;;;;;3.15;1.60;;;28.50;94.70;;;;;;5011035;28;20131;-73
2022/07/13 10:48:26;;;;;;;4.97;1.95;;;28.50;94.60;;;;;;5018577;28;20053;-73
2022/07/13 10:50:57;;;;;;;3.72;2.28;;;28.40;95.40;;;;;;5021100;28;20136;-73
2022/07/13 10:53:52;;;;;;;4.75;2.50;;;28.30;95.40;;;;;;5011274;28;20046;-73
2022/07/13 10:56:21;;;;;;;3.97;2.38;;;28.30;95.40;;;;;;5007430;28;20050;-70
2022/07/13 10:58:49;;;;;;;4.35;2.42;;;28.20;95.40;;;;;;5023834;28;20053;-69
2022/07/13 11:01:43;;;;;;;4.45;1.95;;;28.10;95.80;;;;;;5017196;28;20137;-69
2022/07/13 11:04:11;;;;;;;4.95;2.20;;;28.10;95.70;;;;;;5009540;28;20117;-69
2022/07/13 11:06:38;;;;;;;4.78;1.65;;;28.10;95.70;;;;;;5011362;28;20545;-71
2022/07/13 11:09:20;;;;;;;3.75;2.30;;;28.20;95.70;;;;;;5012616;28;20100;-69
2022/07/13 11:11:50;;;;;;;5.63;2.08;;;28.20;95.80;;;;;;5016877;28;20045;-69
2022/07/13 11:14:40;;;;;;;5.18;2.28;;;28.10;95.10;;;;;;5015182;28;20045;-69
2022/07/13 11:17:16;;;;;;;4.20;2.50;;;28.10;96.10;;;;;;5025257;28;20084;-70
2022/07/13 11:19:56;;;;;;;4.90;2.42;;;28.20;96.50;;;;;;5016938;28;20049;-68
2022/07/13 11:22:24;;;;;;;5.28;3.30;;;28.20;96.30;;;;;;5010968;28;20042;-72
2022/07/13 11:25:14;;;;;;;6.68;3.40;;;28.00;96.40;;;;;;5012950;28;20576;-73
2022/07/13 11:28:02;;;;;;;4.28;2.70;;;27.80;96.70;;;;;;5011885;28;20505;-73
2022/07/13 11:30:34;;;;;;;5.07;3.20;;;27.60;97.10;;;;;;5008998;28;20122;-73
2022/07/13 11:33:00;;;;;;;7.35;3.15;;;27.50;97.00;;;;;;5011394;28;20041;-73
2022/07/13 11:35:26;;;;;;;7.07;3.53;;;27.40;97.50;;;;;;5008670;28;20128;-73
2022/07/13 11:37:53;;;;;;;4.15;3.10;;;27.30;97.60;;;;;;5011915;28;20048;-74
2022/07/13 11:40:32;;;;;;;3.97;2.63;;;27.20;97.70;;;;;;5008929;28;20058;-73
2022/07/13 11:43:00;;;;;;;5.90;3.80;;;27.10;97.70;;;;;;5010879;28;20145;-73
2022/07/13 11:45:30;;;;;;;6.90;3.67;;;27.10;98.00;;;;;;5009346;28;20041;-73
2022/07/13 11:48:04;;;;;;;6.65;3.42;;;27.10;98.20;;;;;;5031088;28;20049;-73
2022/07/13 11:50:39;;;;;;;6.55;3.30;;;27.10;98.60;;;;;;5014061;28;20065;-73
2022/07/13 11:53:06;;;;;;;8.13;3.55;;;27.20;98.90;;;;;;5048473;28;20073;-74
2022/07/13 11:55:31;;;;;;;5.32;3.25;;;27.30;99.10;;;;;;5025910;28;20037;-73
2022/07/13 11:58:00;;;;;;;6.72;3.40;;;27.40;99.00;;;;;;4996214;28;20042;-73
2022/07/13 12:00:26;;;;;;;6.50;3.08;;;27.50;98.70;;;;;;5025146;28;20497;-69
2022/07/13 12:02:52;;;;;;;11.57;2.75;;;27.50;98.90;;;;;;5011339;28;20056;-69
2022/07/13 12:05:22;;;;;;;7.95;2.92;;;27.50;98.80;;;;;;5007882;28;20042;-73
2022/07/13 12:08:00;;;;;;;6.55;2.50;;;27.40;98.70;;;;;;5014396;28;20084;-73
2022/07/13 12:10:26;;;;;;;7.72;2.60;;;27.30;98.70;;;;;;5011857;28;20133;-74
2022/07/13 12:12:52;;;;;;;7.22;2.83;;;27.20;99.10;;;;;;5014535;28;20433;-74
2022/07/13 12:15:19;;;;;;;5.03;2.22;;;27.00;99.00;;;;;;5023353;28;20046;-74
2022/07/13 12:17:52;;;;;;;7.50;3.03;;;26.70;99.00;;;;;;5010571;28;20436;-73
2022/07/13 12:20:21;;;;;;;6.72;2.75;;;26.50;99.40;;;;;;5006962;28;20099;-73
2022/07/13 12:22:56;;;;;;;6.65;2.80;;;26.20;99.70;;;;;;5012564;28;20045;-72
2022/07/13 12:25:23;;;;;;;8.70;2.78;;;26.00;99.90;;;;;;5010558;28;20524;-74
2022/07/13 12:27:51;;;;;;;6.13;2.72;;;26.10;99.90;;;;;;5009720;28;20172;-73
2022/07/13 12:30:17;;;;;;;7.70;2.58;;;26.00;99.90;;;;;;5013347;28;20048;-72
2022/07/13 12:33:01;;;;;;;6.80;3.47;;;26.00;99.90;;;;;;5011527;28;20050;-72
2022/07/13 12:35:36;;;;;;;12.90;2.80;;;26.00;99.90;;;;;;5019260;28;20173;-73
2022/07/13 12:38:11;;;;;;;11.52;2.78;;;26.20;99.90;;;;;;5016553;28;20038;-71
2022/07/13 12:40:44;;;;;;;8.07;2.70;;;26.20;99.90;;;;;;5009345;28;20042;-72
2022/07/13 12:43:19;;;;;;;9.30;2.40;;;26.30;99.90;;;;;;5008560;28;20510;-73
2022/07/13 12:45:53;;;;;;;8.85;2.75;;;26.30;99.90;;;;;;5011710;28;20521;-72
2022/07/13 12:48:24;;;;;;;10.07;2.63;;;26.30;99.90;;;;;;5023441;28;20081;-73